Аэропорт: Кневичи. Владивосток

ICAO: UHWW

METAR:
2019/05/26 14:00
UHWW 261400Z 15004MPS 9999 NSC 18/07 Q1007 R25L/0///70 NOSIG RMK QFE754
METAR:
2019/05/26 12:21
TAF UHWW 261100Z 2612/2712 11003MPS 9999 BKN017 
     FM261400 16003MPS 3100 BR BKN011 BKN015CB 
      TEMPO 2614/2623 0300 FG 
     FM262300 18009MPS 3500 -SHRA BKN012 BKN017CB 
      TEMPO 2623/2712 18014G19MPS